Aerbrava en el facebook Aerbrava en el twitter Aerbrava Google+ Aerbrava instagram Aerbrava en el youtube Aerbrava tumblr Aerbrava flikr Aerbrava pinterest
aerbrava en catal&agà Aerbrava in English
Escuela de Pilotos
Teléfono 972234126 972 23 41 26
 
aerbrava en català Aerbrava in English
Aerbrava - Meteorología

Información meteorológica aeronáutica

 

En este apartado aparece la información meteorológica aeronáutica que es utilizada en las prácticas de los alumnos de la Escuela de Pilotos de nuestro centro durante su formación, por lo que puede no ser actual y se debería utilizar por su propia cuenta y riesgo. AERBRAVA no se hace responsable de su uso.

 

TIEMPO ACTUAL

Satélite Meteorológico

sat24.com

Servei Meteorològic de Catalunya

 

LEGE 172230Z 03004KT 9999 SCT039 BKN056 03/02 Q1008
LEGE 172200Z 32003KT 280V060 9999 BKN056 05/03 Q1008
LEGE 172130Z 00000KT 9999 FEW050 03/02 Q1008
LEGE 172100Z 18004KT 120V230 9999 FEW050 04/03 Q1008
LEGE 172030Z 05003KT 020V080 CAVOK 04/03 Q1008
LEGE 172000Z 32003KT 290V350 9999 FEW050 06/03 Q1008
LEGE 171930Z VRB02KT 9999 FEW050 05/03 Q1008
LEGE 171900Z VRB02KT CAVOK 05/03 Q1008
TAF LEGE 171700Z 1718/1818 VRB04KT 9999 FEW020 TX14/1813Z TN03/1806Z   PROB40   TEMPO 1806/1812 02008KT RA BKN030

Aviation Weather

 
Aerbrava en el facebook Aerbrava en el twitter Aerbrava Google+ Aerbrava instagram Aerbrava en el youtube Aerbrava tumblr Aerbrava flikr Aerbrava pinterest

¡CSS Vàlid!